KILN/ILN METAR and TAF weather

Enter ICAO airport designator
Station Type Date Time Source
KILN METAR 2021/07/24 19:54 UTC NOAA

KILN 241954Z AUTO 18008KT 10SM FEW039 28/20 A3002 RMK AO2 SLP156 T02830200 $


Station Type Date Time Source
KILN Decoded METAR 2021/07/24 19:54 UTC NOAA

WILMINGTON INDUSTRIAL AIRPORT , OH, United States (KILN) 39-26N 083-47W 332M
Jul 24, 2021 - 03:54 PM EDT / 2021.07.24 1954 UTC
Wind: from the S (180 degrees) at 9 MPH (8 KT):0
Visibility: 10 mile(s):0
Sky conditions: mostly clear
Temperature: 82.9 F (28.3 C)
Dew Point: 68.0 F (20.0 C)
Relative Humidity: 60%
Pressure (altimeter): 30.02 in. Hg (1016 hPa)
ob: KILN 241954Z AUTO 18008KT 10SM FEW039 28/20 A3002 RMK AO2 SLP156 T02830200
cycle: 20

Station Type Date Time Source
KILN TAF 2021/07/24 18:24 UTC NOAA

TAF KILN 241722Z 2418/2518 22006KT P6SM BKN040
FM250900 23006KT P6SM VCSH SCT040 BKN080
TEMPO 2510/2513 -SHRA SCT020 BKN040
FM251500 27008KT P6SM VCSH BKN050

Example: see airport list